createdAt,value
2017-05-20T00:00:52.483Z,87.30
2017-05-20T00:03:21.509Z,88.10
2017-05-20T00:05:50.459Z,88.90
2017-05-20T00:08:19.761Z,88.50
2017-05-20T00:10:48.764Z,89.00
2017-05-20T00:13:17.768Z,89.10
2017-05-20T00:15:47.129Z,89.00
2017-05-20T00:18:16.093Z,88.50
2017-05-20T00:20:45.109Z,89.00
2017-05-20T00:23:14.419Z,88.30
2017-05-20T00:25:43.485Z,88.50
2017-05-20T00:28:12.458Z,88.40
2017-05-20T00:30:41.778Z,89.20
2017-05-20T00:33:10.858Z,89.10
2017-05-20T00:35:39.815Z,89.80
2017-05-20T00:38:09.182Z,89.20
2017-05-20T00:40:38.133Z,89.00
2017-05-20T00:43:07.138Z,89.80
2017-05-20T00:45:36.465Z,89.10
2017-05-20T00:48:05.434Z,89.60
2017-05-20T00:50:34.386Z,88.70
2017-05-20T00:53:03.783Z,88.90
2017-05-20T00:55:32.746Z,88.60
2017-05-20T00:58:01.732Z,89.00
2017-05-20T01:00:31.083Z,87.70
2017-05-20T01:03:00.063Z,87.20
2017-05-20T01:05:29.095Z,87.90
2017-05-20T01:07:58.514Z,88.00
2017-05-20T01:10:27.633Z,86.90
2017-05-20T01:12:56.600Z,86.90
2017-05-20T01:15:26.012Z,87.30
2017-05-20T01:17:55.004Z,88.70
2017-05-20T01:20:23.952Z,86.90
2017-05-20T01:22:53.403Z,88.30
2017-05-20T01:25:22.364Z,87.20
2017-05-20T01:27:51.324Z,88.70
2017-05-20T01:30:20.689Z,87.60
2017-05-20T01:32:49.656Z,87.90
2017-05-20T01:35:18.680Z,88.60
2017-05-20T01:37:48.064Z,88.30
2017-05-20T01:40:17.034Z,86.70
2017-05-20T01:42:45.969Z,86.70
2017-05-20T01:45:15.242Z,86.80
2017-05-20T01:47:44.184Z,87.20
2017-05-20T01:50:13.144Z,86.80
2017-05-20T01:52:42.541Z,86.80
2017-05-20T01:55:11.581Z,86.70
2017-05-20T01:57:40.535Z,87.90
2017-05-20T02:00:09.911Z,87.50
2017-05-20T02:02:38.910Z,88.10
2017-05-20T02:05:07.899Z,86.80
2017-05-20T02:07:37.209Z,86.70
2017-05-20T02:10:06.189Z,86.80
2017-05-20T02:12:35.193Z,87.50
2017-05-20T02:15:04.583Z,87.60
2017-05-20T02:17:33.723Z,87.70
2017-05-20T02:20:02.698Z,88.10
2017-05-20T02:22:31.692Z,86.70
2017-05-20T02:25:00.667Z,87.00
2017-05-20T02:27:30.054Z,87.40
2017-05-20T02:29:59.027Z,88.10
2017-05-20T02:32:28.031Z,88.20
2017-05-20T02:34:57.018Z,88.40
2017-05-20T02:37:25.993Z,87.80
2017-05-20T02:39:55.440Z,87.90
2017-05-20T02:42:24.381Z,87.40
2017-05-20T02:44:53.375Z,86.90
2017-05-20T02:47:22.707Z,86.90
2017-05-20T02:49:51.653Z,86.90
2017-05-20T02:52:20.614Z,86.90
2017-05-20T02:54:50.111Z,86.80
2017-05-20T02:57:19.077Z,86.80
2017-05-20T02:59:48.034Z,87.50
2017-05-20T03:02:17.428Z,86.90
2017-05-20T03:04:46.405Z,86.90
2017-05-20T03:07:15.350Z,86.90
2017-05-20T03:09:44.658Z,86.90
2017-05-20T03:12:13.649Z,86.90
2017-05-20T03:14:42.627Z,86.90
2017-05-20T03:17:11.614Z,87.60
2017-05-20T03:19:40.579Z,86.80
2017-05-20T03:22:09.567Z,86.90
2017-05-20T03:24:38.565Z,86.10
2017-05-20T03:27:07.550Z,86.70
2017-05-20T03:29:36.908Z,86.80
2017-05-20T03:32:05.868Z,86.70
2017-05-20T03:34:34.878Z,87.70
2017-05-20T03:37:03.883Z,86.10
2017-05-20T03:39:32.862Z,86.80
2017-05-20T03:42:02.268Z,86.80
2017-05-20T03:44:31.366Z,87.80
2017-05-20T03:47:00.353Z,86.80
2017-05-20T03:49:29.348Z,85.80
2017-05-20T03:51:58.312Z,86.80
2017-05-20T03:54:27.638Z,87.30
2017-05-20T03:56:56.589Z,86.80
2017-05-20T03:59:25.556Z,86.80
2017-05-20T04:01:54.533Z,86.90
2017-05-20T04:04:23.505Z,86.90
2017-05-20T04:06:52.815Z,86.90
2017-05-20T04:09:21.035Z,86.90
2017-05-20T04:11:50.002Z,86.90
2017-05-20T04:14:18.982Z,86.90
2017-05-20T04:16:47.962Z,86.90
2017-05-20T04:19:17.357Z,86.80
2017-05-20T04:21:46.309Z,86.90
2017-05-20T04:24:15.255Z,87.50
2017-05-20T04:26:44.225Z,86.70
2017-05-20T04:29:13.258Z,87.00
2017-05-20T04:31:42.593Z,87.00
2017-05-20T04:34:11.551Z,87.20
2017-05-20T04:36:40.518Z,86.00
2017-05-20T04:39:09.572Z,86.10
2017-05-20T04:41:38.636Z,85.90
2017-05-20T04:44:08.043Z,85.40
2017-05-20T04:46:37.037Z,87.50
2017-05-20T04:49:05.998Z,85.10
2017-05-20T04:51:34.974Z,85.00
2017-05-20T04:54:03.936Z,85.00
2017-05-20T04:56:33.261Z,84.20
2017-05-20T04:59:02.233Z,85.30
2017-05-20T05:01:31.205Z,85.10
2017-05-20T05:04:00.179Z,84.20
2017-05-20T05:06:29.191Z,84.80
2017-05-20T05:08:58.638Z,84.30
2017-05-20T05:11:27.616Z,83.60
2017-05-20T05:13:56.585Z,84.60
2017-05-20T05:16:25.573Z,83.70
2017-05-20T05:18:54.568Z,82.10
2017-05-20T05:21:23.899Z,82.50
2017-05-20T05:23:52.871Z,83.60
2017-05-20T05:26:21.074Z,83.60
2017-05-20T05:28:50.082Z,82.80
2017-05-20T05:31:19.068Z,83.10
2017-05-20T05:33:48.382Z,81.90
2017-05-20T05:36:17.365Z,81.90
2017-05-20T05:38:45.545Z,81.90
2017-05-20T05:41:14.533Z,83.20
2017-05-20T05:43:43.499Z,80.20
2017-05-20T05:46:13.015Z,80.90
2017-05-20T05:48:42.031Z,81.10
2017-05-20T05:51:11.046Z,80.00
2017-05-20T05:53:40.915Z,80.30
2017-05-20T05:56:09.893Z,81.20
2017-05-20T05:58:39.264Z,82.10
2017-05-20T06:01:08.231Z,79.80
2017-05-20T06:03:37.211Z,79.00
2017-05-20T06:06:06.204Z,75.40
2017-05-20T06:08:34.443Z,75.40
2017-05-20T06:11:03.862Z,74.20
2017-05-20T06:13:33.270Z,72.40
2017-05-20T06:16:02.241Z,72.30
2017-05-20T06:18:31.215Z,73.70
2017-05-20T06:21:00.170Z,74.10
2017-05-20T06:26:04.386Z,72.70
2017-05-20T06:28:33.849Z,70.70
2017-05-20T06:31:02.798Z,72.90
2017-05-20T06:33:32.469Z,68.70
2017-05-20T06:36:01.471Z,69.30
2017-05-20T06:38:30.422Z,70.70
2017-05-20T06:40:59.727Z,71.30
2017-05-20T06:43:28.693Z,71.10
2017-05-20T06:45:57.660Z,70.90
2017-05-20T06:48:26.638Z,70.20
2017-05-20T06:50:55.603Z,70.00
2017-05-20T06:53:24.204Z,69.90
2017-05-20T06:55:53.202Z,73.90
2017-05-20T06:58:22.191Z,73.90
2017-05-20T07:00:51.309Z,70.90
2017-05-20T07:03:20.292Z,72.80
2017-05-20T07:05:49.758Z,71.20
2017-05-20T07:08:18.016Z,71.20
2017-05-20T07:10:47.093Z,68.60
2017-05-20T07:13:16.116Z,71.50
2017-05-20T07:15:45.100Z,69.80
2017-05-20T07:18:14.511Z,69.80
2017-05-20T07:20:43.575Z,68.00
2017-05-20T07:23:12.559Z,68.10
2017-05-20T07:25:40.787Z,68.10
2017-05-20T07:28:09.795Z,66.10
2017-05-20T07:30:39.188Z,68.40
2017-05-20T07:33:08.164Z,72.00
2017-05-20T07:35:36.445Z,71.70
2017-05-20T07:38:05.445Z,69.00
2017-05-20T07:40:34.985Z,69.50
2017-05-20T07:43:04.333Z,69.60
2017-05-20T07:45:32.601Z,69.40
2017-05-20T07:48:01.650Z,66.00
2017-05-20T07:50:30.665Z,66.90
2017-05-20T07:52:59.681Z,66.30
2017-05-20T07:55:29.090Z,67.40
2017-05-20T07:57:58.090Z,66.70
2017-05-20T08:00:27.063Z,65.00
2017-05-20T08:02:56.087Z,64.30
2017-05-20T08:05:25.113Z,64.70
2017-05-20T08:07:54.564Z,64.80
2017-05-20T08:10:23.651Z,64.40
2017-05-20T08:12:52.621Z,60.70
2017-05-20T08:15:21.643Z,62.30
2017-05-20T08:17:50.632Z,63.20
2017-05-20T08:20:20.059Z,60.40
2017-05-20T08:22:49.066Z,61.90
2017-05-20T08:25:18.068Z,59.80
2017-05-20T08:27:47.097Z,61.70
2017-05-20T08:30:16.083Z,61.00
2017-05-20T08:32:44.684Z,60.90
2017-05-20T08:35:13.653Z,62.90
2017-05-20T08:37:42.638Z,61.90
2017-05-20T08:40:11.659Z,62.50
2017-05-20T08:42:39.860Z,62.50
2017-05-20T08:45:09.238Z,63.00
2017-05-20T08:47:38.277Z,62.10
2017-05-20T08:50:07.348Z,61.00
2017-05-20T08:52:36.352Z,59.20
2017-05-20T08:55:05.346Z,59.90
2017-05-20T08:57:35.963Z,60.60
2017-05-20T09:00:05.005Z,62.90
2017-05-20T09:02:33.994Z,59.90
2017-05-20T09:05:02.977Z,61.40
2017-05-20T09:07:32.085Z,63.60
2017-05-20T09:10:01.526Z,61.20
2017-05-20T09:12:30.524Z,57.90
2017-05-20T09:14:58.755Z,57.80
2017-05-20T09:17:27.782Z,57.00
2017-05-20T09:19:56.736Z,57.30
2017-05-20T09:22:25.704Z,58.30
2017-05-20T09:24:54.696Z,56.20
2017-05-20T09:27:23.833Z,57.00
2017-05-20T09:29:52.875Z,57.20
2017-05-20T09:32:21.863Z,55.80
2017-05-20T09:34:50.423Z,55.80
2017-05-20T09:37:19.382Z,54.80
2017-05-20T09:39:48.393Z,53.40
2017-05-20T09:42:17.399Z,56.30
2017-05-20T09:44:46.487Z,57.30
2017-05-20T09:47:15.829Z,54.60
2017-05-20T09:49:44.864Z,52.60
2017-05-20T09:52:13.846Z,52.60
2017-05-20T09:54:42.853Z,54.40
2017-05-20T09:57:11.864Z,49.90
2017-05-20T09:59:41.282Z,52.10
2017-05-20T10:02:10.229Z,49.60
2017-05-20T10:04:39.207Z,49.30
2017-05-20T10:07:08.242Z,50.20
2017-05-20T10:09:37.309Z,49.10
2017-05-20T10:12:06.724Z,51.20
2017-05-20T10:14:35.734Z,49.50
2017-05-20T10:17:04.732Z,50.00
2017-05-20T10:19:33.779Z,49.80
2017-05-20T10:22:02.790Z,50.80
2017-05-20T10:24:32.096Z,51.50
2017-05-20T10:27:01.057Z,52.00
2017-05-20T10:29:30.018Z,53.90
2017-05-20T10:31:59.035Z,53.00
2017-05-20T10:34:28.046Z,52.50
2017-05-20T10:36:56.742Z,51.80
2017-05-20T10:39:25.719Z,51.10
2017-05-20T10:41:54.804Z,51.40
2017-05-20T10:44:23.810Z,50.50
2017-05-20T10:46:52.806Z,51.10
2017-05-20T10:49:22.240Z,51.10
2017-05-20T10:51:51.282Z,48.50
2017-05-20T10:54:20.252Z,50.40
2017-05-20T10:56:49.283Z,51.40
2017-05-20T10:59:18.341Z,50.30
2017-05-20T11:01:47.722Z,52.10
2017-05-20T11:04:16.727Z,52.70
2017-05-20T11:06:45.723Z,52.50
2017-05-20T11:09:14.713Z,52.10
2017-05-20T11:11:43.707Z,53.80
2017-05-20T11:14:13.090Z,50.40
2017-05-20T11:16:42.078Z,48.90
2017-05-20T11:19:11.361Z,51.90
2017-05-20T11:21:40.374Z,50.80
2017-05-20T11:24:09.362Z,51.50
2017-05-20T11:26:38.690Z,50.00
2017-05-20T11:29:07.650Z,49.70
2017-05-20T11:31:35.882Z,49.70
2017-05-20T11:34:04.883Z,50.20
2017-05-20T11:36:33.886Z,48.90
2017-05-20T11:39:03.309Z,51.60
2017-05-20T11:41:32.276Z,50.80
2017-05-20T11:44:01.252Z,48.10
2017-05-20T11:46:30.252Z,47.60
2017-05-20T11:48:59.246Z,46.60
2017-05-20T11:51:28.559Z,45.70
2017-05-20T11:53:57.527Z,46.60
2017-05-20T11:56:26.497Z,45.20
2017-05-20T11:58:55.515Z,47.50
2017-05-20T12:01:24.486Z,44.30
2017-05-20T12:03:53.843Z,44.50
2017-05-20T12:06:22.804Z,45.60
2017-05-20T12:08:51.753Z,45.80
2017-05-20T12:11:20.727Z,44.50
2017-05-20T12:13:49.480Z,44.50
2017-05-20T12:16:18.880Z,42.80
2017-05-20T12:18:47.837Z,44.70
2017-05-20T12:21:16.833Z,44.20
2017-05-20T12:23:45.806Z,43.90
2017-05-20T12:26:14.794Z,44.90
2017-05-20T12:28:43.801Z,41.30
2017-05-20T12:31:12.811Z,42.00
2017-05-20T12:33:42.133Z,42.10
2017-05-20T12:36:11.178Z,43.30
2017-05-20T12:38:40.142Z,43.70
2017-05-20T12:41:09.172Z,43.20
2017-05-20T12:43:38.190Z,43.10
2017-05-20T12:46:07.702Z,44.10
2017-05-20T12:48:36.696Z,44.70
2017-05-20T12:51:05.672Z,44.60
2017-05-20T12:53:34.280Z,44.60
2017-05-20T12:56:03.287Z,46.20
2017-05-20T12:58:32.339Z,43.70
2017-05-20T13:01:01.325Z,39.90
2017-05-20T13:03:30.331Z,38.20
2017-05-20T13:05:59.654Z,39.10
2017-05-20T13:08:28.615Z,40.00
2017-05-20T13:10:57.659Z,40.30
2017-05-20T13:13:26.658Z,41.30
2017-05-20T13:15:55.644Z,41.90
2017-05-20T13:18:24.965Z,41.50
2017-05-20T13:20:53.979Z,42.60
2017-05-20T13:23:22.971Z,42.90
2017-05-20T13:25:51.959Z,40.90
2017-05-20T13:28:20.921Z,43.80
2017-05-20T13:30:50.302Z,43.30
2017-05-20T13:33:19.331Z,41.10
2017-05-20T13:35:48.374Z,40.80
2017-05-20T13:38:17.415Z,41.80
2017-05-20T13:40:46.471Z,42.50
2017-05-20T13:43:15.914Z,41.40
2017-05-20T13:45:44.876Z,40.10
2017-05-20T13:48:13.853Z,41.10
2017-05-20T13:50:42.834Z,38.70
2017-05-20T13:53:11.794Z,37.30
2017-05-20T13:55:42.019Z,39.60
2017-05-20T13:58:10.984Z,40.70
2017-05-20T14:00:39.963Z,41.20
2017-05-20T14:03:08.970Z,41.00
2017-05-20T14:05:37.958Z,41.00
2017-05-20T14:08:07.409Z,37.50
2017-05-20T14:10:36.354Z,38.80
2017-05-20T14:13:05.297Z,43.10
2017-05-20T14:15:34.279Z,37.20
2017-05-20T14:18:03.248Z,37.50
2017-05-20T14:20:32.580Z,37.70
2017-05-20T14:23:01.543Z,37.10
2017-05-20T14:25:30.512Z,38.70
2017-05-20T14:27:59.499Z,37.40
2017-05-20T14:30:28.500Z,38.20
2017-05-20T14:32:57.859Z,39.60
2017-05-20T14:35:26.071Z,39.60
2017-05-20T14:37:55.029Z,40.70
2017-05-20T14:40:24.134Z,42.30
2017-05-20T14:42:52.333Z,42.20
2017-05-20T14:45:21.091Z,40.90
2017-05-20T14:47:50.053Z,43.40
2017-05-20T14:50:19.003Z,40.80
2017-05-20T14:52:48.012Z,42.20
2017-05-20T14:55:17.002Z,43.40
2017-05-20T14:57:46.367Z,41.70
2017-05-20T15:00:15.348Z,41.10
2017-05-20T15:02:44.305Z,42.80
2017-05-20T15:05:13.412Z,39.30
2017-05-20T15:07:42.384Z,40.30
2017-05-20T15:10:11.815Z,39.80
2017-05-20T15:12:40.764Z,41.10
2017-05-20T15:15:09.746Z,40.00
2017-05-20T15:17:38.742Z,40.10
2017-05-20T15:20:07.731Z,40.00
2017-05-20T15:22:37.153Z,40.80
2017-05-20T15:25:06.112Z,40.10
2017-05-20T15:27:35.094Z,40.80
2017-05-20T15:30:04.060Z,40.80
2017-05-20T15:32:33.021Z,41.20
2017-05-20T15:35:02.338Z,42.80
2017-05-20T15:37:31.296Z,41.30
2017-05-20T15:40:00.249Z,43.50
2017-05-20T15:42:29.244Z,42.60
2017-05-20T15:44:58.202Z,42.40
2017-05-20T15:47:27.578Z,41.90
2017-05-20T15:49:56.539Z,42.50
2017-05-20T15:52:25.605Z,42.90
2017-05-20T15:54:54.599Z,43.50
2017-05-20T15:57:23.553Z,44.00
2017-05-20T15:59:52.882Z,43.10
2017-05-20T16:02:21.842Z,44.20
2017-05-20T16:04:50.781Z,43.20
2017-05-20T16:07:19.735Z,42.20
2017-05-20T16:09:48.729Z,42.90
2017-05-20T16:12:18.005Z,42.20
2017-05-20T16:14:46.972Z,41.30
2017-05-20T16:17:15.923Z,42.10
2017-05-20T16:19:44.893Z,44.20
2017-05-20T16:22:13.855Z,42.50
2017-05-20T16:24:43.223Z,42.80
2017-05-20T16:27:12.176Z,41.40
2017-05-20T16:29:41.135Z,41.20
2017-05-20T16:32:09.386Z,41.20
2017-05-20T16:34:38.358Z,43.40
2017-05-20T16:37:07.663Z,43.10
2017-05-20T16:39:36.638Z,43.90
2017-05-20T16:42:05.639Z,44.80
2017-05-20T16:44:34.683Z,44.00
2017-05-20T16:47:03.647Z,45.10
2017-05-20T16:49:33.066Z,43.30
2017-05-20T16:52:02.039Z,44.60
2017-05-20T16:54:31.028Z,45.60
2017-05-20T16:57:00.003Z,45.80
2017-05-20T16:59:29.134Z,45.80
2017-05-20T17:01:58.510Z,45.30
2017-05-20T17:04:27.535Z,45.20
2017-05-20T17:06:56.494Z,45.60
2017-05-20T17:09:25.518Z,44.60
2017-05-20T17:11:54.521Z,46.30
2017-05-20T17:14:23.910Z,45.70
2017-05-20T17:16:53.858Z,45.00
2017-05-20T17:19:23.633Z,44.40
2017-05-20T17:21:52.599Z,44.10
2017-05-20T17:24:21.558Z,44.40
2017-05-20T17:26:50.511Z,45.00
2017-05-20T17:29:19.482Z,44.80
2017-05-20T17:31:48.898Z,45.30
2017-05-20T17:34:17.873Z,46.00
2017-05-20T17:36:46.921Z,46.40
2017-05-20T17:39:15.871Z,45.00
2017-05-20T17:41:44.877Z,45.30
2017-05-20T17:44:14.261Z,45.50
2017-05-20T17:46:43.221Z,45.60
2017-05-20T17:49:12.192Z,45.20
2017-05-20T17:51:41.289Z,42.20
2017-05-20T17:54:10.279Z,40.00
2017-05-20T17:56:39.617Z,39.90
2017-05-20T17:59:08.654Z,38.70
2017-05-20T18:01:37.639Z,38.60
2017-05-20T18:04:06.627Z,39.60
2017-05-20T18:06:35.674Z,40.20
2017-05-20T18:09:04.986Z,39.90
2017-05-20T18:11:33.923Z,40.90
2017-05-20T18:14:02.906Z,41.40
2017-05-20T18:16:31.895Z,40.10
2017-05-20T18:19:00.872Z,39.10
2017-05-20T18:21:30.175Z,40.50
2017-05-20T18:23:59.151Z,41.80
2017-05-20T18:26:28.151Z,43.50
2017-05-20T18:28:57.170Z,45.60
2017-05-20T18:31:26.142Z,46.50
2017-05-20T18:33:55.445Z,48.00
2017-05-20T18:36:24.410Z,48.10
2017-05-20T18:38:53.352Z,49.00
2017-05-20T18:41:22.327Z,49.20
2017-05-20T18:43:51.354Z,49.80
2017-05-20T18:46:20.673Z,50.20
2017-05-20T18:48:49.635Z,50.70
2017-05-20T18:51:18.629Z,51.00
2017-05-20T18:53:47.640Z,50.40
2017-05-20T18:56:16.587Z,51.20
2017-05-20T18:58:45.853Z,51.40
2017-05-20T19:01:14.899Z,52.20
2017-05-20T19:03:43.923Z,53.20
2017-05-20T19:06:12.922Z,54.00
2017-05-20T19:08:41.884Z,54.10
2017-05-20T19:11:11.191Z,55.00
2017-05-20T19:13:40.177Z,56.40
2017-05-20T19:16:09.170Z,56.40
2017-05-20T19:18:38.186Z,56.30
2017-05-20T19:21:07.233Z,56.30
2017-05-20T19:23:36.605Z,56.20
2017-05-20T19:26:05.602Z,56.70
2017-05-20T19:28:34.614Z,57.00
2017-05-20T19:31:03.565Z,57.50
2017-05-20T19:33:32.583Z,57.70
2017-05-20T19:36:01.959Z,58.30
2017-05-20T19:38:30.948Z,58.00
2017-05-20T19:40:59.916Z,58.50
2017-05-20T19:43:28.965Z,59.20
2017-05-20T19:45:57.917Z,59.30
2017-05-20T19:48:27.350Z,59.80
2017-05-20T19:50:56.490Z,60.10
2017-05-20T19:53:25.465Z,61.00
2017-05-20T19:55:54.530Z,61.00
2017-05-20T19:58:23.529Z,61.10
2017-05-20T20:00:52.907Z,61.00
2017-05-20T20:03:21.871Z,61.20
2017-05-20T20:05:50.828Z,61.20
2017-05-20T20:08:19.845Z,62.00
2017-05-20T20:10:48.833Z,62.30
2017-05-20T20:13:18.239Z,62.50
2017-05-20T20:15:47.223Z,62.50
2017-05-20T20:18:16.212Z,62.10
2017-05-20T20:20:45.199Z,62.70
2017-05-20T20:23:14.264Z,63.30
2017-05-20T20:25:43.729Z,63.40
2017-05-20T20:28:12.741Z,63.30
2017-05-20T20:30:41.798Z,63.70
2017-05-20T20:33:10.791Z,63.70
2017-05-20T20:35:39.792Z,63.60
2017-05-20T20:38:09.226Z,63.60
2017-05-20T20:40:38.178Z,63.60
2017-05-20T20:43:07.148Z,64.40
2017-05-20T20:45:36.109Z,64.30
2017-05-20T20:48:05.055Z,64.50
2017-05-20T20:50:34.409Z,64.70
2017-05-20T20:53:03.353Z,65.50
2017-05-20T20:55:32.328Z,65.70
2017-05-20T20:58:01.312Z,65.50
2017-05-20T21:00:30.285Z,65.60
2017-05-20T21:02:59.638Z,65.70
2017-05-20T21:05:28.669Z,66.20
2017-05-20T21:07:57.669Z,67.40
2017-05-20T21:10:26.939Z,68.10
2017-05-20T21:12:55.923Z,68.30
2017-05-20T21:15:25.409Z,68.40
2017-05-20T21:17:54.415Z,68.40
2017-05-20T21:20:23.391Z,68.10
2017-05-20T21:22:52.387Z,68.10
2017-05-20T21:25:21.408Z,67.40
2017-05-20T21:27:50.796Z,68.10
2017-05-20T21:30:19.854Z,68.40
2017-05-20T21:32:49.674Z,68.50
2017-05-20T21:35:18.656Z,68.60
2017-05-20T21:37:47.657Z,69.30
2017-05-20T21:40:17.015Z,70.00
2017-05-20T21:42:45.990Z,70.40
2017-05-20T21:45:14.953Z,70.00
2017-05-20T21:47:43.188Z,69.90
2017-05-20T21:50:13.215Z,70.20
2017-05-20T21:52:42.571Z,70.40
2017-05-20T21:55:11.529Z,71.50
2017-05-20T21:57:40.478Z,71.40
2017-05-20T22:00:09.594Z,71.40
2017-05-20T22:02:38.567Z,71.40
2017-05-20T22:05:07.895Z,71.70
2017-05-20T22:07:36.847Z,71.80
2017-05-20T22:10:05.834Z,71.90
2017-05-20T22:12:34.817Z,72.60
2017-05-20T22:15:03.822Z,72.70
2017-05-20T22:17:33.172Z,74.20
2017-05-20T22:20:02.129Z,74.10
2017-05-20T22:22:31.091Z,73.70
2017-05-20T22:24:59.328Z,73.80
2017-05-20T22:27:28.334Z,73.80
2017-05-20T22:29:57.679Z,73.50
2017-05-20T22:32:26.674Z,74.10
2017-05-20T22:34:55.648Z,74.90
2017-05-20T22:37:24.636Z,74.30
2017-05-20T22:39:53.579Z,75.20
2017-05-20T22:42:22.902Z,74.40
2017-05-20T22:44:51.891Z,74.80
2017-05-20T22:47:20.881Z,75.90
2017-05-20T22:49:49.877Z,75.10
2017-05-20T22:52:18.844Z,75.20
2017-05-20T22:54:48.234Z,75.30
2017-05-20T22:57:17.299Z,76.20
2017-05-20T22:59:46.279Z,76.40
2017-05-20T23:02:15.316Z,75.70
2017-05-20T23:04:44.299Z,75.80
2017-05-20T23:07:13.048Z,75.80
2017-05-20T23:09:42.020Z,76.00
2017-05-20T23:12:10.962Z,76.10
2017-05-20T23:14:39.983Z,76.30
2017-05-20T23:17:08.959Z,76.50
2017-05-20T23:19:38.293Z,76.70
2017-05-20T23:22:06.791Z,76.60
2017-05-20T23:24:35.881Z,76.90
2017-05-20T23:27:04.869Z,76.30
2017-05-20T23:29:34.022Z,77.40
2017-05-20T23:32:03.434Z,77.60
2017-05-20T23:34:32.406Z,77.80
2017-05-20T23:37:01.435Z,77.40
2017-05-20T23:39:30.449Z,77.30
2017-05-20T23:41:59.417Z,77.40
2017-05-20T23:44:28.752Z,78.10
2017-05-20T23:46:57.720Z,78.40
2017-05-20T23:49:26.720Z,78.80
2017-05-20T23:51:55.729Z,78.70
2017-05-20T23:54:24.694Z,78.10
2017-05-20T23:56:53.993Z,77.70
2017-05-20T23:59:23.363Z,77.80
